createdAt,value
2019-03-20T00:00:17.489Z,0.10
2019-03-20T00:02:49.657Z,0.30
2019-03-20T00:05:19.915Z,0.10
2019-03-20T00:07:50.015Z,0.10
2019-03-20T00:10:20.298Z,0.10
2019-03-20T00:12:50.480Z,0.10
2019-03-20T00:15:20.661Z,0.10
2019-03-20T00:17:52.387Z,0.10
2019-03-20T00:20:22.699Z,0.10
2019-03-20T00:22:52.811Z,0.10
2019-03-20T00:25:23.012Z,0.45
2019-03-20T00:27:53.757Z,0.10
2019-03-20T00:30:24.234Z,0.10
2019-03-20T00:32:54.428Z,0.10
2019-03-20T00:35:24.641Z,0.10
2019-03-20T00:37:54.824Z,0.35
2019-03-20T00:40:24.937Z,0.10
2019-03-20T00:42:56.223Z,0.40
2019-03-20T00:45:26.569Z,0.10
2019-03-20T00:47:56.729Z,0.10
2019-03-20T00:50:27.114Z,0.08
2019-03-20T00:52:58.311Z,0.10
2019-03-20T00:55:28.493Z,0.10
2019-03-20T00:57:58.685Z,0.10
2019-03-20T01:00:28.915Z,0.00
2019-03-20T01:02:59.439Z,0.20
2019-03-20T01:05:29.563Z,0.10
2019-03-20T01:07:59.687Z,0.10
2019-03-20T01:10:31.133Z,0.10
2019-03-20T01:13:01.251Z,0.10
2019-03-20T01:15:31.839Z,0.10
2019-03-20T01:18:02.192Z,0.10
2019-03-20T01:20:32.902Z,0.10
2019-03-20T01:23:03.027Z,0.42
2019-03-20T01:25:35.184Z,0.10
2019-03-20T01:28:09.111Z,0.10
2019-03-20T01:30:39.598Z,0.30
2019-03-20T01:33:11.575Z,0.10
2019-03-20T01:35:42.113Z,0.10
2019-03-20T01:38:12.234Z,0.10
2019-03-20T01:40:44.935Z,0.10
2019-03-20T01:43:15.045Z,0.10
2019-03-20T01:45:45.165Z,0.10
2019-03-20T01:48:17.462Z,0.82
2019-03-20T01:50:47.557Z,0.10
2019-03-20T01:53:17.687Z,0.10
2019-03-20T01:55:47.785Z,0.10
2019-03-20T01:58:18.068Z,0.20
2019-03-20T02:00:48.413Z,0.10
2019-03-20T02:03:18.743Z,0.17
2019-03-20T02:05:51.939Z,0.10
2019-03-20T02:08:22.099Z,0.10
2019-03-20T02:10:52.764Z,0.10
2019-03-20T02:13:22.947Z,0.20
2019-03-20T02:15:53.068Z,0.10
2019-03-20T02:18:24.682Z,0.10
2019-03-20T02:20:55.068Z,0.10
2019-03-20T02:23:25.438Z,0.10
2019-03-20T02:25:55.560Z,0.10
2019-03-20T02:28:26.923Z,0.10
2019-03-20T02:30:58.829Z,0.20
2019-03-20T02:33:30.003Z,0.10
2019-03-20T02:36:00.156Z,0.00
2019-03-20T02:38:32.399Z,0.10
2019-03-20T02:41:03.405Z,0.10
2019-03-20T02:43:33.550Z,0.10
2019-03-20T02:46:03.647Z,0.10
2019-03-20T02:48:33.838Z,0.10
2019-03-20T02:51:04.028Z,0.10
2019-03-20T02:53:34.246Z,0.10
2019-03-20T02:56:04.383Z,0.10
2019-03-20T02:58:34.478Z,0.10
2019-03-20T03:01:04.677Z,0.10
2019-03-20T03:03:34.982Z,0.42
2019-03-20T03:06:07.049Z,0.10
2019-03-20T03:08:37.157Z,0.40
2019-03-20T03:11:09.048Z,0.10
2019-03-20T03:13:40.792Z,0.10
2019-03-20T03:16:10.966Z,0.10
2019-03-20T03:18:42.686Z,0.10
2019-03-20T03:21:12.896Z,0.10
2019-03-20T03:23:48.714Z,0.10
2019-03-20T03:26:21.993Z,0.10
2019-03-20T03:28:53.162Z,0.10
2019-03-20T03:31:26.433Z,0.10
2019-03-20T03:33:56.590Z,0.10
2019-03-20T03:36:26.661Z,0.10
2019-03-20T03:38:56.829Z,0.20
2019-03-20T03:41:26.953Z,0.10
2019-03-20T03:43:57.128Z,0.10
2019-03-20T03:46:27.226Z,0.10
2019-03-20T03:48:57.434Z,0.53
2019-03-20T03:51:27.609Z,0.10
2019-03-20T03:53:57.746Z,0.10
2019-03-20T03:56:29.852Z,0.10
2019-03-20T03:58:59.659Z,0.10
2019-03-20T04:01:31.500Z,0.10
2019-03-20T04:04:03.965Z,0.10
2019-03-20T04:06:35.829Z,0.10
2019-03-20T04:09:08.000Z,0.10
2019-03-20T04:11:38.113Z,0.10
2019-03-20T04:14:11.213Z,0.20
2019-03-20T04:16:41.791Z,0.10
2019-03-20T04:19:13.076Z,0.10
2019-03-20T04:21:43.691Z,1.00
2019-03-20T04:24:18.389Z,0.10
2019-03-20T04:26:52.194Z,0.10
2019-03-20T04:29:24.963Z,0.10
2019-03-20T04:31:56.056Z,0.10
2019-03-20T04:34:28.235Z,0.50
2019-03-20T04:36:58.397Z,0.10
2019-03-20T04:39:29.461Z,0.20
2019-03-20T04:41:59.551Z,0.20
2019-03-20T04:44:30.582Z,0.50
2019-03-20T04:47:05.360Z,0.30
2019-03-20T04:49:38.079Z,0.10
2019-03-20T04:52:09.270Z,0.10
2019-03-20T04:54:40.479Z,0.10
2019-03-20T04:57:10.663Z,0.75
2019-03-20T04:59:41.275Z,0.10
2019-03-20T05:02:13.133Z,0.13
2019-03-20T05:04:45.945Z,0.10
2019-03-20T05:07:18.901Z,0.20
2019-03-20T05:09:49.153Z,0.10
2019-03-20T05:12:19.563Z,0.10
2019-03-20T05:14:54.614Z,0.47
2019-03-20T05:17:43.803Z,0.40
2019-03-20T05:20:18.723Z,0.20
2019-03-20T05:22:51.623Z,0.30
2019-03-20T05:25:21.803Z,0.50
2019-03-20T05:27:51.893Z,0.20
2019-03-20T05:30:22.103Z,0.10
2019-03-20T05:33:02.816Z,0.23
2019-03-20T05:35:34.078Z,0.62
2019-03-20T05:38:04.263Z,0.45
2019-03-20T05:40:34.446Z,0.40
2019-03-20T05:43:04.543Z,0.20
2019-03-20T05:45:34.699Z,0.20
2019-03-20T05:48:05.181Z,0.33
2019-03-20T05:50:38.155Z,0.35
2019-03-20T05:53:08.303Z,0.23
2019-03-20T05:55:38.439Z,0.35
2019-03-20T05:58:08.551Z,0.70
2019-03-20T06:00:38.851Z,0.93
2019-03-20T06:03:09.105Z,1.27
2019-03-20T06:05:40.261Z,0.72
2019-03-20T06:08:13.067Z,0.60
2019-03-20T06:10:43.279Z,0.90
2019-03-20T06:13:15.779Z,0.60
2019-03-20T06:15:48.106Z,1.12
2019-03-20T06:18:18.373Z,1.55
2019-03-20T06:20:48.573Z,1.50
2019-03-20T06:23:18.791Z,2.10
2019-03-20T06:25:51.406Z,0.98
2019-03-20T06:28:22.121Z,1.87
2019-03-20T06:30:55.199Z,1.20
2019-03-20T06:33:25.444Z,2.22
2019-03-20T06:35:55.710Z,2.12
2019-03-20T06:38:26.070Z,2.35
2019-03-20T06:40:56.313Z,2.17
2019-03-20T06:43:27.820Z,1.77
2019-03-20T06:46:00.824Z,2.90
2019-03-20T06:48:32.824Z,3.33
2019-03-20T06:51:03.125Z,2.20
2019-03-20T06:53:36.259Z,1.75
2019-03-20T06:56:06.504Z,2.77
2019-03-20T06:58:36.861Z,2.15
2019-03-20T07:01:15.633Z,4.67
2019-03-20T07:04:13.444Z,3.35
2019-03-20T07:07:22.811Z,3.30
2019-03-20T07:10:16.109Z,3.85
2019-03-20T07:12:47.402Z,3.12
2019-03-20T07:15:17.574Z,3.72
2019-03-20T07:17:47.949Z,3.95
2019-03-20T07:20:18.125Z,3.25
2019-03-20T07:22:48.632Z,3.33
2019-03-20T07:25:20.874Z,4.10
2019-03-20T07:27:51.302Z,4.90
2019-03-20T07:30:21.578Z,4.37
2019-03-20T07:32:53.384Z,4.42
2019-03-20T07:35:24.066Z,4.12
2019-03-20T07:37:56.233Z,4.37
2019-03-20T07:40:29.046Z,4.67
2019-03-20T07:43:08.311Z,3.90
2019-03-20T07:45:32.747Z,4.97
2019-03-20T07:48:02.870Z,4.92
2019-03-20T07:50:33.038Z,4.30
2019-03-20T07:53:03.820Z,4.62
2019-03-20T07:55:33.938Z,5.00
2019-03-20T07:58:04.221Z,4.90
2019-03-20T08:00:34.355Z,4.97
2019-03-20T08:03:04.607Z,3.95
2019-03-20T08:05:34.762Z,4.53
2019-03-20T08:08:07.551Z,6.10
2019-03-20T08:10:37.248Z,4.97
2019-03-20T08:13:07.440Z,5.25
2019-03-20T08:15:38.920Z,5.30
2019-03-20T08:18:12.188Z,5.65
2019-03-20T08:20:42.336Z,6.45
2019-03-20T08:23:13.855Z,5.85
2019-03-20T08:25:46.777Z,5.50
2019-03-20T08:28:17.126Z,4.58
2019-03-20T08:30:47.314Z,5.17
2019-03-20T08:33:20.464Z,5.25
2019-03-20T08:35:53.735Z,5.30
2019-03-20T08:38:24.438Z,5.80
2019-03-20T08:40:54.720Z,5.12
2019-03-20T08:43:24.885Z,4.50
2019-03-20T08:45:55.034Z,4.42
2019-03-20T08:48:25.269Z,3.60
2019-03-20T08:50:55.529Z,4.35
2019-03-20T08:53:25.731Z,7.95
2019-03-20T08:55:55.880Z,3.60
2019-03-20T08:58:28.752Z,2.27
2019-03-20T09:01:01.403Z,3.25
2019-03-20T09:03:38.852Z,2.62
2019-03-20T09:06:09.103Z,0.95
2019-03-20T09:08:40.349Z,1.25
2019-03-20T09:11:10.493Z,1.85
2019-03-20T09:13:40.745Z,1.12
2019-03-20T09:16:10.996Z,0.75
2019-03-20T09:18:41.222Z,0.85
2019-03-20T09:21:11.361Z,0.88
2019-03-20T09:23:45.611Z,1.27
2019-03-20T09:26:18.126Z,0.40
2019-03-20T09:28:48.294Z,0.45
2019-03-20T09:31:18.517Z,1.37
2019-03-20T09:33:51.188Z,0.75
2019-03-20T09:36:21.869Z,0.30
2019-03-20T09:38:55.025Z,1.00
2019-03-20T09:41:25.179Z,0.35
2019-03-20T09:43:55.519Z,0.60
2019-03-20T09:46:25.816Z,0.70
2019-03-20T09:48:55.949Z,0.33
2019-03-20T09:51:26.505Z,0.82
2019-03-20T09:53:59.607Z,1.50
2019-03-20T09:56:29.741Z,0.68
2019-03-20T09:58:59.848Z,0.95
2019-03-20T10:01:29.975Z,0.70
2019-03-20T10:04:04.875Z,0.72
2019-03-20T10:06:37.788Z,0.55
2019-03-20T10:09:10.818Z,0.70
2019-03-20T10:11:41.180Z,0.53
2019-03-20T10:14:11.384Z,0.62
2019-03-20T10:16:41.504Z,1.02
2019-03-20T10:19:13.303Z,0.95
2019-03-20T10:21:43.422Z,0.65
2019-03-20T10:24:14.107Z,2.00
2019-03-20T10:26:44.227Z,1.25
2019-03-20T10:29:16.019Z,1.55
2019-03-20T10:31:46.267Z,1.00
2019-03-20T10:34:16.619Z,1.45
2019-03-20T10:36:46.789Z,0.70
2019-03-20T10:39:17.017Z,1.10
2019-03-20T10:41:47.165Z,1.07
2019-03-20T10:44:17.328Z,1.42
2019-03-20T10:46:47.654Z,1.45
2019-03-20T10:49:18.618Z,1.00
2019-03-20T10:51:48.749Z,1.02
2019-03-20T10:54:18.886Z,1.27
2019-03-20T10:56:49.082Z,0.62
2019-03-20T10:59:19.238Z,1.90
2019-03-20T11:01:49.398Z,1.12
2019-03-20T11:04:19.624Z,1.65
2019-03-20T11:06:49.986Z,1.10
2019-03-20T11:09:20.352Z,1.77
2019-03-20T11:11:50.626Z,1.00
2019-03-20T11:14:20.951Z,2.08
2019-03-20T11:16:51.175Z,1.62
2019-03-20T11:19:21.424Z,1.42
2019-03-20T11:21:51.744Z,1.95
2019-03-20T11:24:21.965Z,1.62
2019-03-20T11:26:52.754Z,1.52
2019-03-20T11:29:23.054Z,2.10
2019-03-20T11:31:53.303Z,1.67
2019-03-20T11:34:23.726Z,1.10
2019-03-20T11:36:54.071Z,1.02
2019-03-20T11:39:29.514Z,1.07
2019-03-20T11:41:56.876Z,1.37
2019-03-20T11:44:27.077Z,0.95
2019-03-20T11:46:58.565Z,1.30
2019-03-20T11:49:31.501Z,0.95
2019-03-20T11:52:06.800Z,0.50
2019-03-20T11:54:37.048Z,1.27
2019-03-20T11:57:08.690Z,0.90
2019-03-20T11:59:38.920Z,0.60
2019-03-20T12:02:09.904Z,0.45
2019-03-20T12:04:42.188Z,0.40
2019-03-20T12:07:12.402Z,0.72
2019-03-20T12:09:43.744Z,1.42
2019-03-20T12:12:14.027Z,1.07
2019-03-20T12:14:44.252Z,1.00
2019-03-20T12:17:14.408Z,0.60
2019-03-20T12:19:45.253Z,0.70
2019-03-20T12:22:15.702Z,0.90
2019-03-20T12:24:47.588Z,0.30
2019-03-20T12:27:18.598Z,0.62
2019-03-20T12:29:50.695Z,0.60
2019-03-20T12:32:21.122Z,0.50
2019-03-20T12:34:51.319Z,0.65
2019-03-20T12:37:21.631Z,0.60
2019-03-20T12:39:55.282Z,1.37
2019-03-20T12:42:25.532Z,0.50
2019-03-20T12:44:55.963Z,0.70
2019-03-20T12:47:27.521Z,0.57
2019-03-20T12:49:58.036Z,1.25
2019-03-20T12:52:28.250Z,0.37
2019-03-20T12:54:58.765Z,0.80
2019-03-20T12:57:29.224Z,0.78
2019-03-20T12:59:59.451Z,0.60
2019-03-20T13:02:29.615Z,0.80
2019-03-20T13:04:59.893Z,0.85
2019-03-20T13:07:30.557Z,0.40
2019-03-20T13:10:03.555Z,0.55
2019-03-20T13:12:35.162Z,0.78
2019-03-20T13:15:07.852Z,0.35
2019-03-20T13:17:41.139Z,0.35
2019-03-20T13:20:12.125Z,0.30
2019-03-20T13:22:42.320Z,0.47
2019-03-20T13:25:13.445Z,0.47
2019-03-20T13:27:43.622Z,0.80
2019-03-20T13:30:20.430Z,0.62
2019-03-20T13:32:48.831Z,0.50
2019-03-20T13:35:18.998Z,0.93
2019-03-20T13:37:51.483Z,0.60
2019-03-20T13:40:21.807Z,0.65
2019-03-20T13:42:52.048Z,0.68
2019-03-20T13:45:24.459Z,0.40
2019-03-20T13:47:54.746Z,0.40
2019-03-20T13:50:25.099Z,0.60
2019-03-20T13:52:55.619Z,1.50
2019-03-20T13:55:30.157Z,1.70
2019-03-20T13:58:00.555Z,0.70
2019-03-20T14:00:30.740Z,0.93
2019-03-20T14:03:02.368Z,0.62
2019-03-20T14:05:34.599Z,0.70
2019-03-20T14:08:05.159Z,1.57
2019-03-20T14:10:49.420Z,1.12
2019-03-20T14:13:07.318Z,0.62
2019-03-20T14:15:37.702Z,1.42
2019-03-20T14:18:07.826Z,1.05
2019-03-20T14:20:39.524Z,0.57
2019-03-20T14:23:10.023Z,0.35
2019-03-20T14:25:40.345Z,0.72
2019-03-20T14:28:13.025Z,0.90
2019-03-20T14:30:43.281Z,0.72
2019-03-20T14:33:13.447Z,1.62
2019-03-20T14:35:43.698Z,0.33
2019-03-20T14:38:13.936Z,0.30
2019-03-20T14:40:44.341Z,0.40
2019-03-20T14:43:14.783Z,0.30
2019-03-20T14:45:45.123Z,0.53
2019-03-20T14:48:15.411Z,0.20
2019-03-20T14:50:45.710Z,0.45
2019-03-20T14:53:17.212Z,0.30
2019-03-20T14:55:47.500Z,0.28
2019-03-20T14:58:17.674Z,0.30
2019-03-20T15:00:49.196Z,0.20
2019-03-20T15:03:19.516Z,0.20
2019-03-20T15:05:49.685Z,0.28
2019-03-20T15:08:20.814Z,0.20
2019-03-20T15:11:03.191Z,0.23
2019-03-20T15:13:38.330Z,0.55
2019-03-20T15:16:16.193Z,0.20
2019-03-20T15:18:48.185Z,0.20
2019-03-20T15:21:23.210Z,0.20
2019-03-20T15:23:59.830Z,0.20
2019-03-20T15:26:30.451Z,0.20
2019-03-20T15:29:03.760Z,0.13
2019-03-20T15:31:35.077Z,0.10
2019-03-20T15:34:08.368Z,0.47
2019-03-20T15:36:42.044Z,0.20
2019-03-20T15:39:12.489Z,0.10
2019-03-20T15:41:42.838Z,0.20
2019-03-20T15:44:20.651Z,0.20
2019-03-20T15:46:54.025Z,0.10
2019-03-20T15:49:32.546Z,0.20
2019-03-20T15:52:14.551Z,0.20
2019-03-20T15:54:48.535Z,0.20
2019-03-20T15:57:29.375Z,0.20
2019-03-20T16:00:09.441Z,0.20
2019-03-20T16:02:42.671Z,0.30
2019-03-20T16:05:20.212Z,0.20
2019-03-20T16:07:52.348Z,0.10
2019-03-20T16:10:27.052Z,0.13
2019-03-20T16:13:00.918Z,0.10
2019-03-20T16:15:38.970Z,0.13
2019-03-20T16:18:22.692Z,0.10
2019-03-20T16:21:04.186Z,0.10
2019-03-20T16:24:25.848Z,0.10
2019-03-20T16:27:05.537Z,0.10
2019-03-20T16:29:39.428Z,0.10
2019-03-20T16:32:11.334Z,0.10
2019-03-20T16:34:41.908Z,0.20
2019-03-20T16:37:12.362Z,0.10
2019-03-20T16:39:47.296Z,0.20
2019-03-20T16:42:18.403Z,0.20
2019-03-20T16:44:50.000Z,0.20
2019-03-20T16:47:22.206Z,0.20
2019-03-20T16:49:52.440Z,0.20
2019-03-20T16:52:23.749Z,0.10
2019-03-20T16:55:06.846Z,0.20
2019-03-20T16:57:40.358Z,0.20
2019-03-20T17:00:20.849Z,0.35
2019-03-20T17:02:52.460Z,0.20
2019-03-20T17:05:29.353Z,0.20
2019-03-20T17:08:06.710Z,0.20
2019-03-20T17:10:46.373Z,0.20
2019-03-20T17:13:20.685Z,0.30
2019-03-20T17:16:16.588Z,0.30
2019-03-20T17:18:47.690Z,0.72
2019-03-20T17:21:17.926Z,0.40
2019-03-20T17:23:48.221Z,0.30
2019-03-20T17:26:20.204Z,0.50
2019-03-20T17:28:51.611Z,0.25
2019-03-20T17:31:21.850Z,0.30
2019-03-20T17:33:52.211Z,0.70
2019-03-20T17:36:22.935Z,0.20
2019-03-20T17:38:53.483Z,0.25
2019-03-20T17:41:23.683Z,0.20
2019-03-20T17:43:53.949Z,0.20
2019-03-20T17:46:27.584Z,0.20
2019-03-20T17:48:57.771Z,0.45
2019-03-20T17:51:27.985Z,0.72
2019-03-20T17:53:58.335Z,0.57
2019-03-20T17:56:28.987Z,1.10
2019-03-20T17:58:59.276Z,0.85
2019-03-20T18:01:32.577Z,0.98
2019-03-20T18:04:02.713Z,1.12
2019-03-20T18:06:34.061Z,0.78
2019-03-20T18:09:05.824Z,1.40
2019-03-20T18:11:47.104Z,1.10
2019-03-20T18:14:13.235Z,0.50
2019-03-20T18:16:43.947Z,1.05
2019-03-20T18:19:14.715Z,0.65
2019-03-20T18:21:44.978Z,1.10
2019-03-20T18:24:16.400Z,1.17
2019-03-20T18:26:49.064Z,1.32
2019-03-20T18:29:19.372Z,1.15
2019-03-20T18:31:53.686Z,1.05
2019-03-20T18:34:24.853Z,1.07
2019-03-20T18:36:56.595Z,0.82
2019-03-20T18:39:26.824Z,1.52
2019-03-20T18:41:58.068Z,2.02
2019-03-20T18:44:34.058Z,0.93
2019-03-20T18:47:04.203Z,0.60
2019-03-20T18:49:34.472Z,1.30
2019-03-20T18:52:04.778Z,1.15
2019-03-20T18:54:38.039Z,2.22
2019-03-20T18:57:08.278Z,1.22
2019-03-20T18:59:42.786Z,2.08
2019-03-20T19:02:13.152Z,1.60
2019-03-20T19:04:49.357Z,2.00
2019-03-20T19:07:24.494Z,1.75
2019-03-20T19:09:55.099Z,2.27
2019-03-20T19:12:36.780Z,1.80
2019-03-20T19:15:12.221Z,3.67
2019-03-20T19:17:42.540Z,2.25
2019-03-20T19:20:15.393Z,2.35
2019-03-20T19:22:49.663Z,2.70
2019-03-20T19:25:19.908Z,3.50
2019-03-20T19:27:52.684Z,2.50
2019-03-20T19:30:22.932Z,3.37
2019-03-20T19:32:53.091Z,3.02
2019-03-20T19:35:23.354Z,3.65
2019-03-20T19:37:53.493Z,3.50
2019-03-20T19:40:23.764Z,3.27
2019-03-20T19:42:58.937Z,3.60
2019-03-20T19:45:31.616Z,4.03
2019-03-20T19:48:01.822Z,3.83
2019-03-20T19:50:32.184Z,3.90
2019-03-20T19:53:02.475Z,2.90
2019-03-20T19:55:37.426Z,3.85
2019-03-20T19:58:07.712Z,3.05
2019-03-20T20:00:38.039Z,2.98
2019-03-20T20:03:08.161Z,3.00
2019-03-20T20:05:39.550Z,2.72
2019-03-20T20:08:09.816Z,3.75
2019-03-20T20:10:39.998Z,2.85
2019-03-20T20:13:12.005Z,2.70
2019-03-20T20:15:42.363Z,2.90
2019-03-20T20:18:13.543Z,3.35
2019-03-20T20:20:43.746Z,3.77
2019-03-20T20:23:14.028Z,3.22
2019-03-20T20:25:44.298Z,3.87
2019-03-20T20:28:14.700Z,3.15
2019-03-20T20:30:44.938Z,4.65
2019-03-20T20:33:15.089Z,4.08
2019-03-20T20:35:45.479Z,4.10
2019-03-20T20:38:15.644Z,3.58
2019-03-20T20:40:54.990Z,4.50
2019-03-20T20:43:25.176Z,3.65
2019-03-20T20:45:55.499Z,3.22
2019-03-20T20:48:25.840Z,5.30
2019-03-20T20:50:58.600Z,4.78
2019-03-20T20:53:28.898Z,5.12
2019-03-20T20:56:00.972Z,4.80
2019-03-20T20:58:31.195Z,5.30
2019-03-20T21:01:01.823Z,5.78
2019-03-20T21:03:32.087Z,6.33
2019-03-20T21:06:04.652Z,5.62
2019-03-20T21:08:37.962Z,5.37
2019-03-20T21:11:08.264Z,5.50
2019-03-20T21:13:38.389Z,6.05
2019-03-20T21:16:09.614Z,6.17
2019-03-20T21:19:29.812Z,5.60
2019-03-20T21:22:39.714Z,7.45
2019-03-20T21:25:10.415Z,5.70
2019-03-20T21:28:34.354Z,7.17
2019-03-20T21:31:19.979Z,5.97
2019-03-20T21:34:32.908Z,6.97
2019-03-20T21:38:02.286Z,6.78
2019-03-20T21:41:04.277Z,7.10
2019-03-20T21:44:14.028Z,7.28
2019-03-20T21:47:18.799Z,6.62
2019-03-20T21:49:49.576Z,7.05
2019-03-20T21:52:20.670Z,7.47
2019-03-20T21:55:41.322Z,7.55
2019-03-20T21:58:33.182Z,9.13
2019-03-20T22:01:58.692Z,7.90
2019-03-20T22:04:31.348Z,7.95
2019-03-20T22:07:06.317Z,9.25
2019-03-20T22:10:14.738Z,10.48
2019-03-20T22:13:17.827Z,8.88
2019-03-20T22:16:19.976Z,10.32
2019-03-20T22:19:29.249Z,11.10
2019-03-20T22:22:45.818Z,11.00
2019-03-20T22:25:53.472Z,11.38
2019-03-20T22:28:55.796Z,9.90
2019-03-20T22:31:27.216Z,10.78
2019-03-20T22:34:33.470Z,13.03
2019-03-20T22:37:07.229Z,12.88
2019-03-20T22:40:36.510Z,12.40
2019-03-20T22:43:38.932Z,12.23
2019-03-20T22:47:11.379Z,13.43
2019-03-20T22:50:05.395Z,13.15
2019-03-20T22:53:11.141Z,12.53
2019-03-20T22:56:09.091Z,13.78
2019-03-20T22:58:47.013Z,13.03
2019-03-20T23:01:33.928Z,14.68
2019-03-20T23:04:12.218Z,14.05
2019-03-20T23:06:43.003Z,14.20
2019-03-20T23:09:13.750Z,12.65
2019-03-20T23:11:44.553Z,16.07
2019-03-20T23:14:15.280Z,14.35
2019-03-20T23:16:46.345Z,15.88
2019-03-20T23:19:17.267Z,14.85
2019-03-20T23:21:48.042Z,15.65
2019-03-20T23:24:21.160Z,16.48
2019-03-20T23:26:51.975Z,15.53
2019-03-20T23:29:22.808Z,16.93
2019-03-20T23:31:56.911Z,15.10
2019-03-20T23:34:28.165Z,15.13
2019-03-20T23:36:58.943Z,16.35
2019-03-20T23:39:30.458Z,14.98
2019-03-20T23:42:01.376Z,16.55
2019-03-20T23:44:32.065Z,15.60
2019-03-20T23:47:24.401Z,16.30
2019-03-20T23:49:55.429Z,16.02
2019-03-20T23:52:26.324Z,15.48
2019-03-20T23:54:58.381Z,14.23
2019-03-20T23:57:29.758Z,17.50
